BRD weather

Brainerd Lakes Regional Airport
Brainerd, Minnesota, United States

Public forecast

Using degrees Fahrenheit for public forecast. Weather courtesy of forecast.io.

Current aviation weather report (METAR) for Brainerd Lakes Regional Airport

Retrieved 2019/12/05 13:53 UTC (33 minutes ago):

KBRD 051353Z AUTO 15003KT 10SM FEW080 OVC100 M01/M04 A2983 RMK AO2 SLP117 T10111044

Aviation forecast (TAF) for Brainerd Lakes Regional Airport

Retrieved 2019/12/05 12:42 UTC (2 hours ago):

TAF KBRD 051140Z 0512/0612 13004KT P6SM OVC060 FM051300 VRB04KT P6SM OVC035 TEMPO 0513/0514 4SM BR FM051500 14005KT P6SM OVC004 TEMPO 0515/0516 1SM BR FM051700 00000KT P6SM OVC007 FM052300 34010KT P6SM OVC012 FM060500 33009KT P6SM SCT120